createdAt,value
2023-03-26T00:02:06.007Z,217.27
2023-03-26T00:04:34.532Z,220.63
2023-03-26T00:07:03.056Z,216.87
2023-03-26T00:09:31.294Z,213.43
2023-03-26T00:12:00.815Z,219.33
2023-03-26T00:14:29.988Z,219.53
2023-03-26T00:16:58.194Z,217.63
2023-03-26T00:19:27.835Z,219.30
2023-03-26T00:21:57.676Z,216.47
2023-03-26T00:24:29.959Z,216.53
2023-03-26T00:26:58.096Z,219.33
2023-03-26T00:29:27.887Z,218.13
2023-03-26T00:31:56.059Z,219.57
2023-03-26T00:34:24.806Z,210.87
2023-03-26T00:36:54.883Z,211.63
2023-03-26T00:39:24.096Z,220.67
2023-03-26T00:41:54.429Z,218.13
2023-03-26T00:44:23.379Z,218.23
2023-03-26T00:46:52.773Z,218.53
2023-03-26T00:49:20.830Z,219.47
2023-03-26T00:51:48.876Z,219.83
2023-03-26T00:54:19.872Z,217.83
2023-03-26T00:56:47.962Z,220.90
2023-03-26T00:59:17.049Z,213.33
2023-03-26T01:01:45.264Z,221.70
2023-03-26T01:04:30.600Z,215.30
2023-03-26T01:07:01.749Z,213.37
2023-03-26T01:09:35.587Z,216.60
2023-03-26T01:12:06.728Z,218.27
2023-03-26T01:14:34.952Z,210.70
2023-03-26T01:17:06.060Z,220.80
2023-03-26T01:19:42.519Z,217.87
2023-03-26T01:22:14.748Z,210.63
2023-03-26T01:24:46.139Z,213.60
2023-03-26T01:27:26.702Z,212.10
2023-03-26T01:29:57.421Z,226.13
2023-03-26T01:32:57.969Z,209.33
2023-03-26T01:35:35.619Z,214.47
2023-03-26T01:38:18.539Z,209.97
2023-03-26T01:40:53.110Z,211.73
2023-03-26T01:43:29.508Z,221.37
2023-03-26T01:45:59.477Z,214.43
2023-03-26T01:48:32.505Z,218.57
2023-03-26T01:51:00.567Z,220.90
2023-03-26T01:53:28.863Z,216.17
2023-03-26T01:56:07.408Z,216.23
2023-03-26T01:58:42.134Z,213.67
2023-03-26T02:01:24.488Z,220.73
2023-03-26T02:03:59.520Z,220.53
2023-03-26T02:06:34.351Z,214.17
2023-03-26T02:09:05.393Z,216.07
2023-03-26T02:11:36.295Z,225.30
2023-03-26T02:14:06.313Z,215.40
2023-03-26T02:16:35.056Z,217.27
2023-03-26T02:19:04.846Z,215.97
2023-03-26T02:21:34.187Z,230.50
2023-03-26T02:24:04.113Z,217.63
2023-03-26T02:26:37.774Z,217.27
2023-03-26T02:29:13.422Z,215.73
2023-03-26T02:31:44.026Z,215.83
2023-03-26T02:34:12.181Z,210.50
2023-03-26T02:36:46.929Z,211.93
2023-03-26T02:39:15.299Z,218.77
2023-03-26T02:41:51.706Z,215.77
2023-03-26T02:44:19.853Z,217.27
2023-03-26T02:46:59.696Z,211.90
2023-03-26T02:49:48.270Z,215.60
2023-03-26T02:52:33.706Z,221.03
2023-03-26T02:55:01.784Z,217.60
2023-03-26T02:57:31.377Z,215.87
2023-03-26T03:00:17.506Z,221.53
2023-03-26T03:03:06.688Z,212.07
2023-03-26T03:05:35.241Z,218.53
2023-03-26T03:08:22.688Z,215.87
2023-03-26T03:11:09.122Z,214.13
2023-03-26T03:13:53.324Z,216.67
2023-03-26T03:16:26.832Z,211.63
2023-03-26T03:18:58.005Z,214.70
2023-03-26T03:21:34.503Z,218.53
2023-03-26T03:24:02.637Z,218.40
2023-03-26T03:26:36.495Z,214.40
2023-03-26T03:29:34.769Z,214.23
2023-03-26T03:32:31.960Z,218.93
2023-03-26T03:35:04.215Z,216.17
2023-03-26T03:37:33.075Z,210.33
2023-03-26T03:40:01.673Z,213.03
2023-03-26T03:42:32.932Z,213.20
2023-03-26T03:45:07.133Z,216.83
2023-03-26T03:47:57.705Z,215.33
2023-03-26T03:50:35.643Z,208.13
2023-03-26T03:53:26.058Z,218.43
2023-03-26T03:55:56.881Z,215.17
2023-03-26T03:58:34.632Z,212.10
2023-03-26T04:01:13.475Z,211.00
2023-03-26T04:03:57.704Z,213.87
2023-03-26T04:06:33.863Z,212.37
2023-03-26T04:09:01.936Z,214.53
2023-03-26T04:11:30.916Z,215.90
2023-03-26T04:14:19.307Z,207.07
2023-03-26T04:17:13.519Z,207.27
2023-03-26T04:19:42.030Z,216.50
2023-03-26T04:22:12.014Z,216.80
2023-03-26T04:24:54.448Z,216.20
2023-03-26T04:27:36.804Z,211.20
2023-03-26T04:30:45.002Z,205.83
2023-03-26T04:33:29.510Z,214.00
2023-03-26T04:36:02.924Z,215.73
2023-03-26T04:38:41.099Z,212.33
2023-03-26T04:41:13.178Z,212.93
2023-03-26T04:43:51.434Z,215.07
2023-03-26T04:46:27.654Z,212.70
2023-03-26T04:49:10.924Z,208.13
2023-03-26T04:51:41.907Z,209.43
2023-03-26T04:54:24.813Z,214.67
2023-03-26T04:57:02.961Z,205.73
2023-03-26T04:59:54.124Z,206.23
2023-03-26T05:02:22.216Z,208.70
2023-03-26T05:04:57.228Z,210.23
2023-03-26T05:07:29.316Z,207.77
2023-03-26T05:09:59.021Z,206.07
2023-03-26T05:12:51.348Z,207.27
2023-03-26T05:15:24.449Z,208.53
2023-03-26T05:17:52.528Z,199.73
2023-03-26T05:20:32.483Z,209.90
2023-03-26T05:23:00.577Z,201.68
2023-03-26T05:25:34.846Z,201.50
2023-03-26T05:28:05.324Z,198.07
2023-03-26T05:30:49.060Z,206.80
2023-03-26T05:33:17.843Z,197.40
2023-03-26T05:36:02.665Z,196.50
2023-03-26T05:38:33.013Z,204.20
2023-03-26T05:41:03.576Z,198.10
2023-03-26T05:43:32.713Z,207.87
2023-03-26T05:46:12.977Z,194.63
2023-03-26T05:48:41.090Z,196.57
2023-03-26T05:51:12.328Z,195.60
2023-03-26T05:53:44.802Z,199.37
2023-03-26T05:56:31.409Z,204.75
2023-03-26T05:59:17.760Z,199.48
2023-03-26T06:01:45.827Z,194.90
2023-03-26T06:04:17.207Z,200.57
2023-03-26T06:07:11.021Z,195.15
2023-03-26T06:09:41.149Z,198.50
2023-03-26T06:12:10.699Z,196.88
2023-03-26T06:14:42.750Z,202.05
2023-03-26T06:17:40.187Z,199.88
2023-03-26T06:20:17.938Z,199.73
2023-03-26T06:22:49.912Z,202.00
2023-03-26T06:25:22.968Z,207.95
2023-03-26T06:28:06.926Z,199.27
2023-03-26T06:30:37.586Z,200.33
2023-03-26T06:33:13.875Z,197.85
2023-03-26T06:35:48.934Z,198.43
2023-03-26T06:38:19.596Z,196.60
2023-03-26T06:40:47.874Z,196.63
2023-03-26T06:43:27.745Z,201.57
2023-03-26T06:46:14.658Z,199.90
2023-03-26T06:49:01.520Z,200.73
2023-03-26T06:52:04.878Z,200.85
2023-03-26T06:54:45.012Z,203.73
2023-03-26T06:57:31.424Z,198.40
2023-03-26T07:00:19.064Z,207.93
2023-03-26T07:03:05.630Z,200.07
2023-03-26T07:05:52.592Z,199.30
2023-03-26T07:08:43.908Z,200.13
2023-03-26T07:11:31.609Z,207.37
2023-03-26T07:14:19.999Z,205.63
2023-03-26T07:16:59.509Z,202.55
2023-03-26T07:19:38.645Z,204.53
2023-03-26T07:22:07.502Z,199.33
2023-03-26T07:25:02.133Z,200.53
2023-03-26T07:28:07.198Z,199.47
2023-03-26T07:31:27.225Z,201.80
2023-03-26T07:34:36.014Z,211.50
2023-03-26T17:54:48.674Z,153.40
2023-03-26T17:57:22.387Z,169.02
2023-03-26T18:02:47.226Z,174.95
2023-03-26T18:05:17.565Z,166.23
2023-03-26T18:08:16.928Z,171.82
2023-03-26T18:11:07.873Z,175.02
2023-03-26T18:14:23.573Z,169.38
2023-03-26T18:16:54.282Z,179.25
2023-03-26T18:19:24.976Z,175.48
2023-03-26T18:21:54.648Z,182.35
2023-03-26T18:24:26.685Z,176.02
2023-03-26T18:26:58.439Z,181.90
2023-03-26T18:29:28.496Z,185.27
2023-03-26T18:32:00.440Z,183.65
2023-03-26T18:34:32.252Z,179.65
2023-03-26T18:37:14.681Z,179.50
2023-03-26T18:39:42.987Z,172.85
2023-03-26T18:42:22.366Z,169.90
2023-03-26T18:44:52.843Z,176.68
2023-03-26T18:47:21.677Z,182.07
2023-03-26T18:49:56.362Z,180.60
2023-03-26T18:52:24.677Z,180.00
2023-03-26T18:54:55.188Z,179.27
2023-03-26T18:57:25.954Z,174.60
2023-03-26T18:59:56.073Z,175.02
2023-03-26T19:02:26.240Z,176.73
2023-03-26T19:04:56.775Z,183.07
2023-03-26T19:07:27.223Z,170.23
2023-03-26T19:09:56.716Z,178.63
2023-03-26T19:12:29.940Z,177.15
2023-03-26T19:15:03.625Z,170.57
2023-03-26T19:17:35.354Z,167.80
2023-03-26T19:20:09.707Z,174.85
2023-03-26T19:22:41.395Z,171.52
2023-03-26T19:25:18.913Z,172.75
2023-03-26T19:27:46.990Z,171.80
2023-03-26T19:30:28.360Z,170.02
2023-03-26T19:33:13.135Z,169.05
2023-03-26T19:35:45.411Z,166.25
2023-03-26T19:38:25.552Z,165.18
2023-03-26T19:40:55.608Z,172.85
2023-03-26T19:43:24.814Z,167.30
2023-03-26T19:46:00.194Z,167.68
2023-03-26T19:48:45.810Z,168.68
2023-03-26T19:51:21.265Z,165.48
2023-03-26T19:53:55.065Z,171.10
2023-03-26T19:56:23.938Z,171.65
2023-03-26T19:58:52.488Z,184.75
2023-03-26T20:01:23.718Z,171.57
2023-03-26T20:03:53.863Z,168.15
2023-03-26T20:06:31.050Z,166.35
2023-03-26T20:09:06.519Z,173.18
2023-03-26T20:11:37.902Z,169.48
2023-03-26T20:14:13.013Z,170.20
2023-03-26T20:16:42.909Z,168.10
2023-03-26T20:19:14.209Z,167.65
2023-03-26T20:21:44.954Z,171.95
2023-03-26T20:24:15.026Z,174.25
2023-03-26T20:26:43.690Z,167.27
2023-03-26T20:29:12.937Z,171.95
2023-03-26T20:31:42.130Z,175.68
2023-03-26T20:34:17.180Z,184.90
2023-03-26T20:36:46.925Z,170.73
2023-03-26T20:39:15.424Z,168.50
2023-03-26T20:41:46.562Z,168.45
2023-03-26T20:44:17.934Z,167.65
2023-03-26T20:46:48.267Z,173.43
2023-03-26T20:49:17.848Z,171.38
2023-03-26T20:51:48.889Z,165.68
2023-03-26T20:54:19.017Z,162.65
2023-03-26T20:56:48.025Z,174.80
2023-03-26T20:59:22.346Z,170.07
2023-03-26T21:01:51.851Z,172.52
2023-03-26T21:04:20.376Z,167.93
2023-03-26T21:06:50.843Z,172.68
2023-03-26T21:09:23.823Z,165.10
2023-03-26T21:12:01.524Z,169.68
2023-03-26T21:14:34.296Z,164.63
2023-03-26T21:17:02.755Z,171.10
2023-03-26T21:19:31.344Z,161.07
2023-03-26T21:22:13.703Z,171.10
2023-03-26T21:24:52.285Z,160.57
2023-03-26T21:27:27.139Z,168.90
2023-03-26T21:29:56.227Z,162.30
2023-03-26T21:32:25.232Z,165.18
2023-03-26T21:37:27.119Z,169.25
2023-03-26T21:39:55.822Z,160.95
2023-03-26T21:42:26.982Z,171.68
2023-03-26T21:44:56.073Z,172.50
2023-03-26T21:47:24.523Z,164.40
2023-03-26T21:49:54.667Z,165.98
2023-03-26T21:52:23.940Z,166.63
2023-03-26T21:54:54.339Z,163.45
2023-03-26T21:57:44.650Z,165.82
2023-03-26T22:00:16.294Z,160.23
2023-03-26T22:02:54.575Z,164.35
2023-03-26T22:05:32.228Z,166.43
2023-03-26T22:08:04.115Z,162.02
2023-03-26T22:10:33.834Z,164.18
2023-03-26T22:13:02.095Z,166.35
2023-03-26T22:15:31.054Z,170.52
2023-03-26T22:18:02.480Z,167.88
2023-03-26T22:20:30.860Z,161.32
2023-03-26T22:23:00.941Z,165.52
2023-03-26T22:25:29.268Z,163.02
2023-03-26T22:27:59.155Z,168.13
2023-03-26T22:30:27.463Z,164.30
2023-03-26T22:32:55.855Z,166.32
2023-03-26T22:35:24.258Z,160.30
2023-03-26T22:37:52.659Z,166.93
2023-03-26T22:40:29.673Z,163.40
2023-03-26T22:42:59.319Z,158.90
2023-03-26T22:45:27.780Z,162.35
2023-03-26T22:48:03.690Z,162.73
2023-03-26T22:50:32.542Z,157.82
2023-03-26T22:53:01.151Z,161.65
2023-03-26T22:55:30.007Z,153.85
2023-03-26T22:57:59.905Z,160.43
2023-03-26T23:00:28.294Z,159.48
2023-03-26T23:03:00.208Z,160.32
2023-03-26T23:05:29.409Z,163.90
2023-03-26T23:07:58.280Z,163.70
2023-03-26T23:10:26.608Z,156.07
2023-03-26T23:12:54.923Z,160.52
2023-03-26T23:15:25.939Z,160.02
2023-03-26T23:17:55.118Z,152.68
2023-03-26T23:20:23.626Z,159.88
2023-03-26T23:22:52.531Z,155.55
2023-03-26T23:25:21.287Z,163.30
2023-03-26T23:27:50.652Z,161.80
2023-03-26T23:30:19.417Z,158.77
2023-03-26T23:32:49.224Z,160.38
2023-03-26T23:35:17.657Z,158.57
2023-03-26T23:37:45.907Z,157.10
2023-03-26T23:40:14.655Z,153.63
2023-03-26T23:42:42.969Z,161.88
2023-03-26T23:45:13.068Z,156.85
2023-03-26T23:47:42.591Z,151.60
2023-03-26T23:50:13.115Z,152.13
2023-03-26T23:52:41.479Z,150.40
2023-03-26T23:55:10.316Z,152.82
2023-03-26T23:57:38.679Z,156.07
